createdAt,value
2019-05-01T00:01:59.071Z,21.48
2019-05-01T00:08:03.825Z,22.40
2019-05-01T00:14:08.952Z,22.67
2019-05-01T00:20:13.461Z,22.75
2019-05-01T00:26:17.989Z,23.87
2019-05-01T00:32:22.374Z,23.42
2019-05-01T00:38:26.588Z,22.63
2019-05-01T00:44:31.131Z,23.83
2019-05-01T00:50:35.341Z,23.42
2019-05-01T00:57:10.756Z,23.40
2019-05-01T01:03:15.113Z,23.70
2019-05-01T01:09:20.018Z,23.87
2019-05-01T01:15:24.420Z,24.25
2019-05-01T01:21:28.962Z,25.57
2019-05-01T01:27:33.163Z,25.45
2019-05-01T01:33:37.512Z,25.77
2019-05-01T01:39:41.703Z,25.02
2019-05-01T01:45:47.940Z,26.13
2019-05-01T01:51:52.438Z,27.13
2019-05-01T01:57:57.002Z,29.15
2019-05-01T02:04:06.348Z,27.45
2019-05-01T02:10:10.660Z,26.30
2019-05-01T02:16:14.962Z,26.33
2019-05-01T02:22:19.241Z,24.75
2019-05-01T02:28:29.361Z,25.83
2019-05-01T02:34:35.055Z,24.25
2019-05-01T02:40:55.674Z,29.20
2019-05-01T02:47:03.197Z,27.02
2019-05-01T02:53:07.572Z,32.57
2019-05-01T02:59:13.070Z,34.33
2019-05-01T03:05:17.360Z,37.60
2019-05-01T03:11:21.672Z,37.97
2019-05-01T03:18:00.352Z,37.60
2019-05-01T03:24:10.889Z,36.15
2019-05-01T03:30:15.464Z,34.67
2019-05-01T03:36:19.677Z,36.20
2019-05-01T03:42:24.013Z,35.73
2019-05-01T03:48:28.332Z,35.28
2019-05-01T03:54:33.626Z,37.03
2019-05-01T04:00:55.703Z,41.30
2019-05-01T04:07:00.101Z,40.43
2019-05-01T04:13:04.506Z,42.37
2019-05-01T04:19:08.860Z,47.10
2019-05-01T04:25:13.264Z,45.20
2019-05-01T04:31:37.679Z,41.73
2019-05-01T04:37:41.970Z,42.45
2019-05-01T04:43:46.494Z,40.27
2019-05-01T04:49:51.238Z,40.60
2019-05-01T04:55:55.438Z,43.63
2019-05-01T05:02:02.923Z,42.83
2019-05-01T05:08:07.311Z,40.75
2019-05-01T05:14:16.982Z,38.65
2019-05-01T05:20:21.398Z,40.73
2019-05-01T05:26:26.246Z,41.92
2019-05-01T05:32:32.872Z,41.18
2019-05-01T05:39:08.590Z,41.90
2019-05-01T05:45:12.988Z,40.97
2019-05-01T05:51:39.008Z,42.50
2019-05-01T05:58:05.545Z,45.40
2019-05-01T06:04:27.536Z,47.03
2019-05-01T06:10:46.786Z,47.17
2019-05-01T06:16:59.678Z,47.35
2019-05-01T06:23:34.251Z,47.70
2019-05-01T06:29:38.474Z,46.70
2019-05-01T06:35:42.785Z,47.00
2019-05-01T06:41:47.130Z,45.28
2019-05-01T06:47:56.335Z,50.17
2019-05-01T06:54:00.652Z,48.80
2019-05-01T07:00:09.295Z,50.78
2019-05-01T07:06:14.593Z,52.53
2019-05-01T07:12:23.925Z,50.88
2019-05-01T07:18:29.204Z,51.08
2019-05-01T07:24:33.597Z,53.00
2019-05-01T07:30:45.181Z,50.35
2019-05-01T07:36:50.156Z,49.95
2019-05-01T07:43:00.070Z,51.45
2019-05-01T07:49:05.197Z,49.35
2019-05-01T07:55:12.961Z,50.70
2019-05-01T08:01:27.577Z,47.95
2019-05-01T08:07:32.398Z,49.35
2019-05-01T08:13:37.939Z,49.70
2019-05-01T08:19:48.109Z,48.58
2019-05-01T08:25:52.565Z,45.85
2019-05-01T08:32:05.682Z,46.25
2019-05-01T08:38:09.980Z,45.55
2019-05-01T08:44:14.491Z,46.10
2019-05-01T08:50:24.807Z,45.38
2019-05-01T08:56:26.202Z,47.58
2019-05-01T09:02:30.585Z,44.77
2019-05-01T09:08:34.891Z,44.70
2019-05-01T09:14:39.252Z,45.10
2019-05-01T09:20:45.128Z,44.60
2019-05-01T09:27:14.644Z,42.60
2019-05-01T09:33:19.076Z,42.35
2019-05-01T09:39:23.576Z,28.90
2019-05-01T09:45:27.882Z,41.85
2019-05-01T09:52:09.401Z,43.00
2019-05-01T09:58:13.749Z,44.42
2019-05-01T10:04:18.096Z,43.70
2019-05-01T10:10:24.892Z,42.10
2019-05-01T10:16:28.722Z,43.48
2019-05-01T10:22:37.290Z,44.33
2019-05-01T10:28:50.173Z,42.83
2019-05-01T10:35:09.357Z,44.42
2019-05-01T10:41:16.746Z,44.05
2019-05-01T10:47:21.019Z,42.33
2019-05-01T10:53:25.286Z,42.38
2019-05-01T11:17:07.859Z,44.88
2019-05-01T11:23:12.169Z,42.93
2019-05-01T11:29:17.356Z,43.50
2019-05-01T11:35:41.385Z,41.02
2019-05-01T11:41:54.111Z,43.00
2019-05-01T11:47:58.404Z,44.08
2019-05-01T11:54:02.746Z,41.83
2019-05-01T12:17:21.293Z,41.23
2019-05-01T12:23:25.623Z,41.10
2019-05-01T12:29:29.915Z,41.20
2019-05-01T12:35:34.269Z,40.78
2019-05-01T12:41:44.413Z,33.50
2019-05-01T12:48:02.635Z,42.73
2019-05-01T12:54:12.496Z,45.40
2019-05-01T13:00:18.619Z,42.70
2019-05-01T13:06:22.840Z,42.23
2019-05-01T13:12:27.120Z,41.50
2019-05-01T13:18:31.405Z,45.45
2019-05-01T13:24:38.504Z,43.98
2019-05-01T13:30:53.804Z,41.23
2019-05-01T13:37:03.103Z,40.17
2019-05-01T13:43:04.116Z,41.77
2019-05-01T13:49:08.664Z,41.02
2019-05-01T13:55:13.688Z,43.92
2019-05-01T14:01:18.250Z,43.45
2019-05-01T14:07:22.488Z,42.27
2019-05-01T14:13:26.759Z,40.85
2019-05-01T14:19:31.538Z,35.38
2019-05-01T14:25:53.733Z,40.88
2019-05-01T14:31:58.024Z,42.93
2019-05-01T14:38:02.391Z,41.00
2019-05-01T14:44:06.690Z,43.20
2019-05-01T14:50:11.104Z,40.43
2019-05-01T14:56:15.439Z,41.08
2019-05-01T15:02:19.731Z,40.20
2019-05-01T15:08:24.397Z,38.53
2019-05-01T15:14:47.702Z,37.53
2019-05-01T15:20:52.011Z,37.15
2019-05-01T15:26:56.298Z,37.73
2019-05-01T15:33:00.527Z,37.73
2019-05-01T15:39:08.683Z,37.67
2019-05-01T15:45:13.180Z,38.98
2019-05-01T15:51:17.518Z,38.05
2019-05-01T15:57:21.901Z,38.58
2019-05-01T16:03:26.214Z,39.18
2019-05-01T16:09:30.603Z,37.78
2019-05-01T16:15:35.525Z,38.83
2019-05-01T16:21:39.835Z,38.88
2019-05-01T16:27:44.066Z,39.92
2019-05-01T16:33:48.623Z,38.85
2019-05-01T16:39:58.910Z,38.30
2019-05-01T16:46:03.324Z,42.58
2019-05-01T16:52:08.414Z,41.23
2019-05-01T16:58:14.925Z,42.80
2019-05-01T17:04:43.326Z,41.68
2019-05-01T17:10:48.938Z,43.30
2019-05-01T17:16:53.336Z,45.33
2019-05-01T17:22:57.579Z,46.02
2019-05-01T17:29:01.924Z,43.42
2019-05-01T17:35:08.006Z,44.53
2019-05-01T17:41:12.424Z,47.40
2019-05-01T17:47:18.044Z,45.30
2019-05-01T17:53:22.987Z,47.67
2019-05-01T17:59:27.663Z,46.20
2019-05-01T18:05:51.004Z,47.48
2019-05-01T18:11:55.436Z,47.03
2019-05-01T18:17:59.670Z,45.80
2019-05-01T18:24:24.711Z,46.37
2019-05-01T18:30:36.549Z,45.98
2019-05-01T18:36:46.107Z,46.25
2019-05-01T18:42:50.641Z,45.58
2019-05-01T18:48:54.940Z,44.38
2019-05-01T18:54:59.413Z,45.95
2019-05-01T19:01:08.807Z,45.60
2019-05-01T19:07:09.975Z,45.25
2019-05-01T19:13:14.489Z,44.55
2019-05-01T19:19:18.838Z,43.83
2019-05-01T19:25:23.135Z,42.00
2019-05-01T19:31:27.457Z,41.60
2019-05-01T19:37:31.682Z,41.90
2019-05-01T19:43:40.060Z,39.63
2019-05-01T19:49:42.041Z,39.27
2019-05-01T19:55:46.747Z,38.98
2019-05-01T20:01:51.172Z,38.53
2019-05-01T20:07:56.032Z,39.42
2019-05-01T20:14:00.582Z,38.63
2019-05-01T20:20:05.838Z,37.95
2019-05-01T20:26:10.063Z,37.93
2019-05-01T20:32:14.349Z,37.55
2019-05-01T20:38:18.589Z,40.08
2019-05-01T20:44:23.861Z,38.15
2019-05-01T20:50:28.990Z,39.10
2019-05-01T20:56:51.070Z,38.53
2019-05-01T21:02:55.368Z,38.20
2019-05-01T21:09:19.129Z,37.78
2019-05-01T21:15:24.825Z,39.60
2019-05-01T21:21:29.508Z,39.88
2019-05-01T21:27:33.781Z,38.63
2019-05-01T21:33:40.831Z,39.65
2019-05-01T21:39:44.088Z,40.92
2019-05-01T21:45:48.401Z,40.33
2019-05-01T21:51:52.999Z,40.15
2019-05-01T21:57:57.336Z,41.80
2019-05-01T22:04:01.690Z,40.98
2019-05-01T22:10:06.562Z,41.95
2019-05-01T22:16:18.537Z,44.15
2019-05-01T22:22:38.702Z,41.92
2019-05-01T22:28:50.288Z,42.75
2019-05-01T22:35:00.344Z,42.67
2019-05-01T22:41:11.943Z,42.20
2019-05-01T22:47:16.349Z,42.85
2019-05-01T22:53:20.669Z,44.73
2019-05-01T22:59:25.076Z,42.45
2019-05-01T23:05:29.720Z,41.90
2019-05-01T23:11:35.844Z,43.35
2019-05-01T23:17:45.787Z,42.15
2019-05-01T23:23:50.097Z,45.92
2019-05-01T23:29:54.438Z,43.80
2019-05-01T23:35:58.714Z,46.53
2019-05-01T23:42:03.031Z,43.10
2019-05-01T23:48:07.254Z,45.23
2019-05-01T23:54:11.527Z,45.67
